Time;durP1;ratioP1;P1;durP2;ratioP2;P2;SDS_P1;SDS_P2;PMS_P1;PMS_P2;Temp;Humidity;BMP_temperature;BMP_pressure;BME280_temperature;BME280_humidity;BME280_pressure;Samples;Min_cycle;Max_cycle;Signal;HPM_P1;HPM_P2
2021/11/04 00:00:18;;;;;;;12.43;2.90;;;;;;;;;;5115984;28;20463;-70
2021/11/04 00:02:45;;;;;;;8.90;2.88;;;;;;;;;;5115888;28;20024;-67
2021/11/04 00:05:11;;;;;;;5.28;2.70;;;;;;;;;;5115599;28;20072;-68
2021/11/04 00:07:37;;;;;;;5.53;2.72;;;;;;;;;;5115724;28;20030;-67
2021/11/04 00:10:04;;;;;;;8.52;3.15;;;;;;;;;;5116161;28;20463;-69
2021/11/04 00:12:30;;;;;;;7.22;3.20;;;;;;;;;;5116430;28;20526;-67
2021/11/04 00:14:56;;;;;;;6.38;2.50;;;;;;;;;;5116608;28;20115;-68
2021/11/04 00:17:22;;;;;;;6.75;2.30;;;;;;;;;;5116317;28;20023;-67
2021/11/04 00:19:48;;;;;;;7.72;3.05;;;;;;;;;;5115874;28;20123;-67
2021/11/04 00:22:14;;;;;;;10.23;3.33;;;;;;;;;;5115550;28;20036;-67
2021/11/04 00:24:40;;;;;;;4.72;2.60;;;;;;;;;;5115475;28;20027;-66
2021/11/04 00:27:06;;;;;;;4.95;2.67;;;;;;;;;;5115935;28;20088;-67
2021/11/04 00:29:33;;;;;;;4.57;2.55;;;;;;;;;;5115737;28;20111;-67
2021/11/04 00:32:00;;;;;;;5.95;2.50;;;;;;;;;;5115485;28;20123;-67
2021/11/04 00:34:27;;;;;;;3.97;2.42;;;;;;;;;;5115428;28;20443;-69
2021/11/04 00:36:53;;;;;;;12.15;2.97;;;;;;;;;;5097648;28;20030;-66
2021/11/04 00:39:19;;;;;;;6.38;2.50;;;;;;;;;;5115521;28;20085;-67
2021/11/04 00:41:45;;;;;;;7.53;2.95;;;;;;;;;;5115227;28;20374;-67
2021/11/04 00:44:11;;;;;;;8.10;2.80;;;;;;;;;;5115438;28;20103;-66
2021/11/04 00:46:37;;;;;;;5.20;2.50;;;;;;;;;;5115255;28;20058;-68
2021/11/04 00:49:03;;;;;;;5.78;2.50;;;;;;;;;;5114091;27;20054;-67
2021/11/04 00:51:29;;;;;;;5.13;2.80;;;;;;;;;;5156452;27;20327;-67
2021/11/04 00:53:55;;;;;;;9.18;2.63;;;;;;;;;;5156411;27;20019;-67
2021/11/04 00:56:21;;;;;;;5.25;2.58;;;;;;;;;;5156154;27;20101;-67
2021/11/04 00:58:50;;;;;;;4.90;2.63;;;;;;;;;;5156121;27;20023;-68
2021/11/04 01:01:17;;;;;;;6.57;2.40;;;;;;;;;;5156331;27;20387;-69
2021/11/04 01:03:43;;;;;;;9.73;2.53;;;;;;;;;;5156616;27;20121;-67
2021/11/04 01:06:13;;;;;;;10.75;2.60;;;;;;;;;;5156641;27;20030;-70
2021/11/04 01:08:39;;;;;;;9.07;2.67;;;;;;;;;;5156018;27;20052;-67
2021/11/04 01:11:05;;;;;;;10.48;2.90;;;;;;;;;;5156275;27;20026;-67
2021/11/04 01:13:31;;;;;;;14.85;2.38;;;;;;;;;;5156411;27;20018;-67
2021/11/04 01:15:57;;;;;;;9.02;2.60;;;;;;;;;;5142835;27;20180;-66
2021/11/04 01:18:23;;;;;;;6.22;2.50;;;;;;;;;;5135015;27;20574;-68
2021/11/04 01:20:49;;;;;;;3.22;2.47;;;;;;;;;;5117258;27;20027;-69
2021/11/04 01:23:16;;;;;;;4.65;2.60;;;;;;;;;;5135408;27;20023;-70
2021/11/04 01:25:42;;;;;;;8.38;2.53;;;;;;;;;;5135712;27;20035;-70
2021/11/04 01:28:08;;;;;;;7.90;2.63;;;;;;;;;;5135257;27;20027;-67
2021/11/04 01:30:35;;;;;;;9.77;2.58;;;;;;;;;;5135298;27;20020;-68
2021/11/04 01:33:01;;;;;;;7.07;2.95;;;;;;;;;;5117116;27;20053;-68
2021/11/04 01:35:30;;;;;;;12.40;2.60;;;;;;;;;;5116338;27;20034;-67
2021/11/04 01:37:56;;;;;;;9.77;3.03;;;;;;;;;;5134792;27;20050;-67
2021/11/04 01:40:22;;;;;;;11.45;2.60;;;;;;;;;;5116399;27;20509;-68
2021/11/04 01:42:48;;;;;;;9.88;2.60;;;;;;;;;;5134765;27;20065;-69
2021/11/04 01:45:14;;;;;;;11.07;2.80;;;;;;;;;;5135198;27;20466;-70
2021/11/04 01:47:42;;;;;;;7.13;3.25;;;;;;;;;;5135609;27;20422;-68
2021/11/04 01:50:08;;;;;;;11.98;2.53;;;;;;;;;;5152474;27;20022;-67
2021/11/04 01:52:34;;;;;;;6.03;2.63;;;;;;;;;;5155557;27;20022;-67
2021/11/04 01:55:00;;;;;;;8.70;2.60;;;;;;;;;;5155242;27;20023;-67
2021/11/04 01:57:26;;;;;;;7.60;2.60;;;;;;;;;;5155713;27;20520;-68
2021/11/04 01:59:52;;;;;;;10.23;2.55;;;;;;;;;;5155556;27;20163;-67
2021/11/04 02:02:20;;;;;;;7.03;2.80;;;;;;;;;;5155542;27;20011;-67
2021/11/04 02:04:46;;;;;;;5.28;2.60;;;;;;;;;;5155642;27;20038;-67
2021/11/04 02:07:31;;;;;;;3.90;2.30;;;;;;;;;;5155062;27;20027;-67
2021/11/04 02:10:03;;;;;;;7.68;2.70;;;;;;;;;;5136642;27;20030;-66
2021/11/04 02:12:32;;;;;;;5.18;2.40;;;;;;;;;;5155455;27;20448;-66
2021/11/04 02:14:59;;;;;;;6.13;2.33;;;;;;;;;;5155252;27;20025;-67
2021/11/04 02:17:26;;;;;;;5.47;2.70;;;;;;;;;;5155083;27;20019;-67
2021/11/04 02:19:55;;;;;;;6.15;2.45;;;;;;;;;;5154811;27;20072;-68
2021/11/04 02:22:27;;;;;;;3.58;2.20;;;;;;;;;;5136654;27;20018;-67
2021/11/04 02:25:04;;;;;;;8.13;2.63;;;;;;;;;;5155242;27;20018;-68
2021/11/04 02:27:31;;;;;;;3.47;2.35;;;;;;;;;;5155233;27;20415;-66
2021/11/04 02:29:57;;;;;;;5.00;2.38;;;;;;;;;;5155468;27;20034;-67
2021/11/04 02:32:24;;;;;;;4.47;2.50;;;;;;;;;;5154847;27;20027;-68
2021/11/04 02:34:50;;;;;;;3.67;2.40;;;;;;;;;;5154738;27;20038;-68
2021/11/04 02:37:16;;;;;;;2.42;2.20;;;;;;;;;;5136279;27;20813;-68
2021/11/04 02:39:44;;;;;;;4.63;2.30;;;;;;;;;;5154900;27;20038;-67
2021/11/04 02:42:10;;;;;;;2.47;2.03;;;;;;;;;;5154647;27;20057;-67
2021/11/04 02:44:37;;;;;;;3.83;2.15;;;;;;;;;;5154909;27;20030;-68
2021/11/04 02:47:03;;;;;;;2.65;2.30;;;;;;;;;;5154845;27;20027;-69
2021/11/04 02:49:30;;;;;;;2.95;2.40;;;;;;;;;;5155026;27;20365;-69
2021/11/04 02:51:56;;;;;;;2.78;2.28;;;;;;;;;;5155015;27;20029;-68
2021/11/04 02:54:23;;;;;;;4.35;2.33;;;;;;;;;;5155085;27;20023;-68
2021/11/04 02:56:49;;;;;;;4.07;2.30;;;;;;;;;;5154787;27;20026;-68
2021/11/04 02:59:17;;;;;;;3.05;2.10;;;;;;;;;;5135642;27;20091;-67
2021/11/04 03:01:43;;;;;;;3.33;2.25;;;;;;;;;;5137912;27;20026;-68
2021/11/04 03:04:10;;;;;;;3.72;2.33;;;;;;;;;;5158627;27;20034;-67
2021/11/04 03:06:36;;;;;;;2.90;1.98;;;;;;;;;;5158750;27;20027;-67
2021/11/04 03:09:03;;;;;;;2.00;1.90;;;;;;;;;;5140146;27;20030;-69
2021/11/04 03:11:29;;;;;;;5.57;2.70;;;;;;;;;;5139929;27;20018;-69
2021/11/04 03:13:55;;;;;;;2.60;2.30;;;;;;;;;;5158516;27;20075;-68
2021/11/04 03:16:21;;;;;;;3.85;2.03;;;;;;;;;;5158343;27;20022;-68
2021/11/04 03:18:48;;;;;;;2.20;2.00;;;;;;;;;;5157853;27;20051;-68
2021/11/04 03:21:15;;;;;;;7.72;2.20;;;;;;;;;;5139826;27;20071;-67
2021/11/04 03:23:41;;;;;;;8.30;2.47;;;;;;;;;;5158455;27;20021;-69
2021/11/04 03:26:07;;;;;;;4.93;2.20;;;;;;;;;;5158728;27;20029;-67
2021/11/04 03:28:33;;;;;;;4.38;2.22;;;;;;;;;;5158456;27;20035;-68
2021/11/04 03:31:00;;;;;;;4.68;2.20;;;;;;;;;;5158925;27;20029;-67
2021/11/04 03:33:27;;;;;;;4.20;2.20;;;;;;;;;;5158316;27;20030;-67
2021/11/04 03:35:55;;;;;;;2.92;2.10;;;;;;;;;;5158201;27;20099;-67
2021/11/04 03:38:21;;;;;;;2.58;2.38;;;;;;;;;;5158223;27;20054;-68
2021/11/04 03:40:47;;;;;;;8.30;2.40;;;;;;;;;;5139645;27;20065;-69
2021/11/04 03:43:14;;;;;;;4.47;2.20;;;;;;;;;;5157894;27;20046;-67
2021/11/04 03:45:40;;;;;;;4.95;2.03;;;;;;;;;;5158305;27;20806;-68
2021/11/04 03:48:06;;;;;;;3.83;2.53;;;;;;;;;;5157539;27;20030;-67
2021/11/04 03:50:33;;;;;;;5.97;2.40;;;;;;;;;;5137531;27;20073;-67
2021/11/04 03:52:59;;;;;;;3.70;2.25;;;;;;;;;;5136905;27;20064;-68
2021/11/04 03:55:28;;;;;;;11.35;2.50;;;;;;;;;;5137344;27;20031;-67
2021/11/04 03:57:55;;;;;;;9.50;2.70;;;;;;;;;;5118735;27;20015;-67
2021/11/04 04:00:21;;;;;;;7.60;2.55;;;;;;;;;;5137115;27;20153;-67
2021/11/04 04:02:48;;;;;;;7.55;2.78;;;;;;;;;;5137159;27;20469;-68
2021/11/04 04:05:14;;;;;;;7.20;2.30;;;;;;;;;;5137022;27;20031;-70
2021/11/04 04:07:41;;;;;;;2.95;2.20;;;;;;;;;;5137013;27;20114;-68
2021/11/04 04:10:07;;;;;;;6.55;2.33;;;;;;;;;;5137238;27;20027;-69
2021/11/04 04:12:33;;;;;;;8.05;2.10;;;;;;;;;;5117894;27;20076;-68
2021/11/04 04:14:59;;;;;;;2.65;2.30;;;;;;;;;;5136883;27;20079;-67
2021/11/04 04:17:25;;;;;;;7.88;2.30;;;;;;;;;;5136836;27;20378;-69
2021/11/04 04:19:51;;;;;;;3.78;2.22;;;;;;;;;;5136895;27;20494;-70
2021/11/04 04:22:18;;;;;;;8.88;2.30;;;;;;;;;;5137188;27;20034;-70
2021/11/04 04:24:44;;;;;;;4.40;2.50;;;;;;;;;;5137083;27;20034;-70
2021/11/04 04:27:11;;;;;;;3.78;2.40;;;;;;;;;;5136893;27;20060;-68
2021/11/04 04:29:37;;;;;;;6.45;2.50;;;;;;;;;;5136413;27;20024;-70
2021/11/04 04:32:04;;;;;;;4.95;2.30;;;;;;;;;;5118342;27;20046;-69
2021/11/04 04:34:30;;;;;;;3.53;2.40;;;;;;;;;;5118040;27;20148;-69
2021/11/04 04:36:56;;;;;;;10.63;2.70;;;;;;;;;;5136716;27;20026;-70
2021/11/04 04:39:22;;;;;;;7.72;2.10;;;;;;;;;;5136424;27;20039;-70
2021/11/04 04:41:48;;;;;;;7.88;2.58;;;;;;;;;;5136626;27;20099;-67
2021/11/04 04:44:14;;;;;;;3.92;2.58;;;;;;;;;;5136558;27;20031;-70
2021/11/04 04:46:40;;;;;;;4.82;2.13;;;;;;;;;;5136087;27;20049;-67
2021/11/04 04:49:06;;;;;;;5.25;2.35;;;;;;;;;;5136163;27;20098;-69
2021/11/04 04:51:32;;;;;;;4.20;2.22;;;;;;;;;;5136786;27;20438;-70
2021/11/04 04:53:58;;;;;;;5.28;2.55;;;;;;;;;;5136419;27;20034;-70
2021/11/04 04:56:24;;;;;;;2.50;2.30;;;;;;;;;;5136250;27;20110;-69
2021/11/04 04:58:50;;;;;;;5.22;2.35;;;;;;;;;;5136051;27;20390;-69
2021/11/04 05:01:16;;;;;;;6.72;2.33;;;;;;;;;;5136225;27;20066;-67
2021/11/04 05:03:42;;;;;;;3.22;2.25;;;;;;;;;;5135550;27;20423;-68
2021/11/04 05:06:08;;;;;;;3.38;2.30;;;;;;;;;;5135614;27;20027;-67
2021/11/04 05:08:34;;;;;;;5.35;2.30;;;;;;;;;;5135811;27;20031;-68
2021/11/04 05:11:00;;;;;;;2.78;2.50;;;;;;;;;;5117548;27;20038;-68
2021/11/04 05:13:26;;;;;;;7.43;2.50;;;;;;;;;;5136060;27;20028;-70
2021/11/04 05:15:52;;;;;;;3.72;2.10;;;;;;;;;;5135974;27;20046;-69
2021/11/04 05:18:18;;;;;;;2.85;2.30;;;;;;;;;;5135989;27;20039;-67
2021/11/04 05:20:44;;;;;;;2.78;2.30;;;;;;;;;;5134815;27;20385;-66
2021/11/04 05:23:10;;;;;;;3.75;2.35;;;;;;;;;;5135377;27;20076;-68
2021/11/04 05:25:36;;;;;;;5.97;2.45;;;;;;;;;;5135361;27;20023;-68
2021/11/04 05:28:02;;;;;;;4.03;2.30;;;;;;;;;;5135444;27;20030;-67
2021/11/04 05:30:28;;;;;;;14.27;2.45;;;;;;;;;;5135048;27;20020;-67
2021/11/04 05:32:54;;;;;;;7.50;2.60;;;;;;;;;;5135549;27;20085;-68
2021/11/04 05:35:20;;;;;;;11.48;2.38;;;;;;;;;;5117049;27;20100;-67
2021/11/04 05:37:46;;;;;;;6.20;2.30;;;;;;;;;;5134774;27;20023;-67
2021/11/04 05:40:13;;;;;;;10.85;2.38;;;;;;;;;;5135261;27;20089;-66
2021/11/04 05:42:39;;;;;;;8.10;2.67;;;;;;;;;;5116553;27;20061;-67
2021/11/04 05:45:06;;;;;;;10.30;2.50;;;;;;;;;;5134773;27;20046;-67
2021/11/04 05:47:32;;;;;;;10.23;2.50;;;;;;;;;;5135200;27;20084;-65
2021/11/04 05:49:58;;;;;;;30.80;3.22;;;;;;;;;;5151361;27;20027;-66
2021/11/04 05:52:24;;;;;;;33.75;3.45;;;;;;;;;;5155888;27;20047;-68
2021/11/04 05:54:55;;;;;;;28.23;3.63;;;;;;;;;;5137065;27;20064;-71
2021/11/04 05:57:21;;;;;;;26.08;3.10;;;;;;;;;;5136820;27;20054;-68
2021/11/04 05:59:47;;;;;;;39.10;4.00;;;;;;;;;;5155903;27;20493;-67
2021/11/04 06:02:13;;;;;;;44.10;3.38;;;;;;;;;;5155339;27;20026;-70
2021/11/04 06:04:43;;;;;;;34.95;3.67;;;;;;;;;;5137025;27;20031;-67
2021/11/04 06:07:09;;;;;;;31.92;3.35;;;;;;;;;;5155273;27;20400;-72
2021/11/04 06:09:35;;;;;;;30.70;3.20;;;;;;;;;;5137985;27;20031;-69
2021/11/04 06:12:01;;;;;;;29.77;4.05;;;;;;;;;;5155368;27;20023;-70
2021/11/04 06:14:27;;;;;;;24.80;3.35;;;;;;;;;;5154630;27;20034;-67
2021/11/04 06:16:53;;;;;;;23.55;3.17;;;;;;;;;;5133993;27;20019;-70
2021/11/04 06:19:20;;;;;;;39.15;3.63;;;;;;;;;;5133748;27;20439;-69
2021/11/04 06:21:46;;;;;;;34.33;3.25;;;;;;;;;;5133907;27;20107;-69
2021/11/04 06:24:12;;;;;;;25.55;2.92;;;;;;;;;;5134260;28;20054;-67
2021/11/04 06:26:38;;;;;;;25.58;3.30;;;;;;;;;;5133901;28;20136;-67
2021/11/04 06:29:05;;;;;;;18.52;3.25;;;;;;;;;;5133839;28;20117;-66
2021/11/04 06:31:31;;;;;;;41.60;3.45;;;;;;;;;;5133776;28;20027;-68
2021/11/04 06:33:57;;;;;;;39.25;3.40;;;;;;;;;;5133609;28;20034;-67
2021/11/04 06:36:26;;;;;;;16.30;2.70;;;;;;;;;;5136578;27;20030;-67
2021/11/04 06:38:52;;;;;;;24.73;3.42;;;;;;;;;;5119273;27;20051;-65
2021/11/04 06:41:19;;;;;;;22.30;3.08;;;;;;;;;;5138090;27;20023;-67
2021/11/04 06:43:45;;;;;;;16.80;2.72;;;;;;;;;;5119547;27;20043;-68
2021/11/04 06:46:13;;;;;;;30.88;3.28;;;;;;;;;;5137433;27;20023;-67
2021/11/04 06:48:40;;;;;;;33.17;3.95;;;;;;;;;;5142740;27;20023;-65
2021/11/04 06:51:06;;;;;;;22.65;4.97;;;;;;;;;;5157830;27;20022;-67
2021/11/04 06:53:32;;;;;;;21.27;4.35;;;;;;;;;;5141300;27;20049;-64
2021/11/04 06:56:01;;;;;;;23.55;4.60;;;;;;;;;;5157853;27;20419;-65
2021/11/04 06:58:31;;;;;;;21.02;4.10;;;;;;;;;;5139088;27;20015;-65
2021/11/04 07:00:59;;;;;;;26.95;5.05;;;;;;;;;;5157417;27;20038;-65
2021/11/04 07:03:27;;;;;;;26.25;5.20;;;;;;;;;;5157232;27;20038;-65
2021/11/04 07:06:07;;;;;;;20.52;5.40;;;;;;;;;;5139447;27;20015;-66
2021/11/04 07:08:39;;;;;;;39.30;5.97;;;;;;;;;;5157910;27;20026;-65
2021/11/04 07:11:05;;;;;;;;;;;;;;;;;;5157712;27;20019;-63
2021/11/04 07:13:32;;;;;;;32.63;6.53;;;;;;;;;;5157751;27;19926;-66
2021/11/04 07:15:59;;;;;;;20.73;6.20;;;;;;;;;;5125257;27;20031;-66
2021/11/04 07:18:25;;;;;;;28.40;6.68;;;;;;;;;;5118388;27;20382;-65
2021/11/04 07:21:03;;;;;;;21.70;6.80;;;;;;;;;;5138744;27;20062;-65
2021/11/04 07:23:37;;;;;;;18.88;6.32;;;;;;;;;;5138964;27;20385;-64
2021/11/04 07:26:05;;;;;;;20.90;5.90;;;;;;;;;;5118486;27;20093;-65
2021/11/04 07:28:31;;;;;;;16.73;5.50;;;;;;;;;;5136892;27;20031;-63
2021/11/04 07:30:58;;;;;;;19.30;5.20;;;;;;;;;;5136832;27;20027;-64
2021/11/04 07:33:27;;;;;;;26.10;5.50;;;;;;;;;;5136552;27;20610;-64
2021/11/04 07:35:54;;;;;;;19.80;5.97;;;;;;;;;;5140144;27;20035;-65
2021/11/04 07:38:21;;;;;;;17.58;5.30;;;;;;;;;;5136753;27;20087;-64
2021/11/04 07:40:48;;;;;;;11.48;4.85;;;;;;;;;;5136158;27;20067;-66
2021/11/04 07:43:14;;;;;;;12.07;5.15;;;;;;;;;;5100987;27;20027;-67
2021/11/04 07:45:40;;;;;;;8.57;4.18;;;;;;;;;;5136378;27;20038;-64
2021/11/04 07:48:06;;;;;;;14.10;4.32;;;;;;;;;;5135715;27;20019;-64
2021/11/04 07:50:32;;;;;;;11.05;4.25;;;;;;;;;;5156921;27;20106;-65
2021/11/04 07:52:59;;;;;;;15.82;4.53;;;;;;;;;;5156508;27;20042;-65
2021/11/04 07:55:25;;;;;;;12.43;4.38;;;;;;;;;;5157128;27;20018;-65
2021/11/04 07:57:51;;;;;;;17.67;4.00;;;;;;;;;;5156760;27;20021;-65
2021/11/04 08:00:21;;;;;;;9.18;3.65;;;;;;;;;;5156557;27;20073;-63
2021/11/04 08:02:47;;;;;;;10.38;3.20;;;;;;;;;;5156877;27;20038;-65
2021/11/04 08:05:15;;;;;;;10.32;2.90;;;;;;;;;;5138062;27;20027;-67
2021/11/04 08:07:41;;;;;;;14.60;3.72;;;;;;;;;;5140093;27;20030;-65
2021/11/04 08:10:09;;;;;;;10.73;3.17;;;;;;;;;;5156538;27;20525;-64
2021/11/04 08:12:35;;;;;;;9.23;2.63;;;;;;;;;;5156677;27;20121;-64
2021/11/04 08:15:01;;;;;;;11.25;3.10;;;;;;;;;;5151144;27;20512;-64
2021/11/04 08:17:27;;;;;;;6.47;2.80;;;;;;;;;;5138217;27;20069;-64
2021/11/04 08:19:56;;;;;;;9.07;2.75;;;;;;;;;;5137866;27;20390;-65
2021/11/04 08:22:22;;;;;;;5.65;2.30;;;;;;;;;;5135752;27;20027;-65
2021/11/04 08:24:48;;;;;;;6.95;2.30;;;;;;;;;;5135433;27;20382;-66
2021/11/04 08:27:15;;;;;;;4.88;2.20;;;;;;;;;;5116811;27;20030;-64
2021/11/04 08:29:41;;;;;;;7.25;2.67;;;;;;;;;;5135014;27;20103;-64
2021/11/04 08:32:11;;;;;;;9.27;1.98;;;;;;;;;;5135309;27;20027;-64
2021/11/04 08:34:41;;;;;;;9.95;2.05;;;;;;;;;;5135397;27;20019;-65
2021/11/04 08:37:09;;;;;;;10.00;2.15;;;;;;;;;;5135809;27;20023;-64
2021/11/04 08:39:35;;;;;;;4.80;1.70;;;;;;;;;;5134938;27;20035;-66
2021/11/04 08:42:02;;;;;;;4.55;2.10;;;;;;;;;;5135277;27;20027;-65
2021/11/04 08:44:28;;;;;;;5.82;1.48;;;;;;;;;;5116888;27;20030;-66
2021/11/04 08:46:55;;;;;;;6.07;1.65;;;;;;;;;;5135307;27;20031;-65
2021/11/04 08:49:21;;;;;;;3.38;1.63;;;;;;;;;;5127641;27;20534;-65
2021/11/04 08:51:47;;;;;;;3.65;1.50;;;;;;;;;;5155731;27;20042;-64
2021/11/04 08:54:13;;;;;;;12.38;1.52;;;;;;;;;;5155695;27;20123;-64
2021/11/04 08:56:40;;;;;;;5.95;1.73;;;;;;;;;;5155519;27;20026;-68
2021/11/04 08:59:07;;;;;;;11.00;1.50;;;;;;;;;;5100452;27;20167;-66
2021/11/04 09:01:33;;;;;;;9.85;1.40;;;;;;;;;;5120450;27;20038;-64
2021/11/04 09:04:00;;;;;;;5.72;1.20;;;;;;;;;;5133555;27;20023;-64
2021/11/04 09:06:26;;;;;;;2.53;1.02;;;;;;;;;;5127586;27;20027;-66
2021/11/04 09:08:52;;;;;;;6.13;1.20;;;;;;;;;;5126825;27;20398;-65
2021/11/04 09:11:18;;;;;;;5.28;1.10;;;;;;;;;;5114947;27;20027;-69
2021/11/04 09:13:44;;;;;;;11.10;1.17;;;;;;;;;;5136686;27;20050;-66
2021/11/04 09:16:10;;;;;;;8.02;1.30;;;;;;;;;;5127059;27;20030;-65
2021/11/04 09:18:36;;;;;;;2.58;1.42;;;;;;;;;;5134041;27;20418;-65
2021/11/04 09:21:02;;;;;;;4.72;0.90;;;;;;;;;;5137977;27;20506;-65
2021/11/04 09:23:28;;;;;;;5.85;1.00;;;;;;;;;;5134298;27;20026;-68
2021/11/04 09:25:54;;;;;;;8.55;1.15;;;;;;;;;;5133520;27;20042;-69
2021/11/04 09:28:20;;;;;;;5.60;1.10;;;;;;;;;;5127669;27;20131;-66
2021/11/04 09:30:46;;;;;;;10.52;1.20;;;;;;;;;;5134435;27;20092;-67
2021/11/04 09:33:15;;;;;;;9.48;1.35;;;;;;;;;;5125943;27;20059;-67
2021/11/04 09:35:41;;;;;;;14.80;1.70;;;;;;;;;;5113965;27;20026;-68
2021/11/04 09:38:07;;;;;;;20.25;1.38;;;;;;;;;;5133657;27;20023;-66
2021/11/04 09:40:34;;;;;;;19.00;1.75;;;;;;;;;;5128699;27;20040;-65
2021/11/04 09:43:00;;;;;;;22.88;1.73;;;;;;;;;;5129650;27;20031;-65
2021/11/04 09:45:27;;;;;;;17.25;1.95;;;;;;;;;;5124619;27;20142;-65
2021/11/04 09:47:53;;;;;;;14.38;1.80;;;;;;;;;;5132722;27;20011;-66
2021/11/04 09:50:20;;;;;;;9.98;2.00;;;;;;;;;;5132238;27;20023;-66
2021/11/04 09:52:48;;;;;;;25.75;1.58;;;;;;;;;;5134835;27;20031;-64
2021/11/04 09:55:19;;;;;;;19.05;2.15;;;;;;;;;;5133592;27;20023;-64
2021/11/04 09:57:47;;;;;;;19.48;1.90;;;;;;;;;;5135482;27;20038;-65
2021/11/04 10:00:14;;;;;;;6.40;1.55;;;;;;;;;;5132136;27;20807;-67
2021/11/04 10:02:43;;;;;;;16.75;1.95;;;;;;;;;;5132231;27;20147;-64
2021/11/04 10:05:10;;;;;;;12.23;1.92;;;;;;;;;;5132543;27;20031;-65
2021/11/04 10:07:44;;;;;;;20.30;1.95;;;;;;;;;;5133847;27;20515;-65
2021/11/04 10:10:11;;;;;;;16.10;1.60;;;;;;;;;;5136556;27;20101;-67
2021/11/04 10:12:54;;;;;;;15.48;2.13;;;;;;;;;;5133290;27;20019;-66
2021/11/04 10:15:20;;;;;;;15.15;2.40;;;;;;;;;;5131490;27;20036;-66
2021/11/04 10:17:46;;;;;;;16.33;2.03;;;;;;;;;;5132199;27;20063;-67
2021/11/04 10:20:15;;;;;;;13.13;1.70;;;;;;;;;;5123191;27;20641;-66
2021/11/04 10:22:41;;;;;;;5.90;1.77;;;;;;;;;;5114870;27;20028;-66
2021/11/04 10:25:20;;;;;;;11.70;1.70;;;;;;;;;;5114691;27;20027;-64
2021/11/04 10:27:46;;;;;;;12.55;1.65;;;;;;;;;;5112489;27;20082;-66
2021/11/04 10:30:32;;;;;;;17.50;3.13;;;;;;;;;;5135882;27;20439;-65
2021/11/04 10:32:58;;;;;;;21.40;3.55;;;;;;;;;;5137261;27;20058;-67
2021/11/04 10:35:30;;;;;;;24.60;3.35;;;;;;;;;;5127170;27;20054;-64
2021/11/04 10:38:00;;;;;;;22.40;4.03;;;;;;;;;;5106362;27;20072;-66
2021/11/04 10:40:26;;;;;;;15.52;3.38;;;;;;;;;;5135400;27;20035;-64
2021/11/04 10:42:53;;;;;;;18.23;3.83;;;;;;;;;;5133664;27;20115;-65
2021/11/04 10:45:21;;;;;;;23.33;4.30;;;;;;;;;;5132391;27;20026;-66
2021/11/04 10:47:47;;;;;;;26.67;4.03;;;;;;;;;;5135159;27;20043;-65
2021/11/04 10:50:23;;;;;;;19.27;4.28;;;;;;;;;;5128778;27;20557;-67
2021/11/04 10:52:49;;;;;;;19.33;4.72;;;;;;;;;;5133570;27;20116;-66
2021/11/04 10:55:15;;;;;;;35.28;5.25;;;;;;;;;;5135438;27;20043;-65
2021/11/04 10:57:42;;;;;;;22.80;4.03;;;;;;;;;;5139283;27;20031;-67
2021/11/04 11:00:14;;;;;;;22.17;4.15;;;;;;;;;;5133562;27;20523;-67
2021/11/04 11:02:51;;;;;;;21.38;3.90;;;;;;;;;;5136197;27;20043;-65
2021/11/04 11:05:30;;;;;;;32.22;4.47;;;;;;;;;;5134032;27;20031;-65
2021/11/04 11:07:57;;;;;;;19.50;3.88;;;;;;;;;;5132747;27;20016;-66
2021/11/04 11:10:23;;;;;;;25.23;4.53;;;;;;;;;;5111179;27;20058;-68
2021/11/04 11:12:49;;;;;;;22.48;3.97;;;;;;;;;;5139175;27;20030;-67
2021/11/04 11:15:15;;;;;;;17.52;3.58;;;;;;;;;;5136322;27;20039;-66
2021/11/04 11:17:42;;;;;;;23.25;3.30;;;;;;;;;;5131021;27;20024;-66
2021/11/04 11:20:11;;;;;;;21.98;3.03;;;;;;;;;;5112316;27;20049;-66
2021/11/04 11:22:39;;;;;;;13.27;2.60;;;;;;;;;;5137574;27;20026;-67
2021/11/04 11:25:06;;;;;;;17.15;3.28;;;;;;;;;;5134030;27;20367;-68
2021/11/04 11:27:32;;;;;;;12.05;2.75;;;;;;;;;;5135642;27;20023;-65
2021/11/04 11:29:58;;;;;;;27.08;2.80;;;;;;;;;;5141298;27;20046;-67
2021/11/04 11:32:25;;;;;;;14.18;2.45;;;;;;;;;;5141007;27;20092;-66
2021/11/04 11:35:19;;;;;;;9.07;2.60;;;;;;;;;;5136831;27;20031;-70
2021/11/04 11:38:03;;;;;;;11.70;2.13;;;;;;;;;;5141943;27;20058;-67
2021/11/04 11:40:30;;;;;;;10.82;2.03;;;;;;;;;;5136687;27;20415;-65
2021/11/04 11:42:57;;;;;;;8.32;1.70;;;;;;;;;;5133328;27;20077;-64
2021/11/04 11:45:23;;;;;;;10.55;2.03;;;;;;;;;;5120500;27;20019;-68
2021/11/04 11:47:49;;;;;;;14.73;1.67;;;;;;;;;;5141286;27;20028;-67
2021/11/04 11:50:21;;;;;;;15.35;2.05;;;;;;;;;;5139247;27;20438;-66
2021/11/04 11:53:20;;;;;;;18.70;1.30;;;;;;;;;;5113480;27;20023;-65
2021/11/04 11:55:48;;;;;;;10.52;1.35;;;;;;;;;;5110668;27;20581;-70
2021/11/04 11:58:29;;;;;;;5.55;1.02;;;;;;;;;;5136219;27;20052;-65
2021/11/04 12:00:57;;;;;;;8.73;1.58;;;;;;;;;;5139518;27;20043;-68
2021/11/04 12:03:38;;;;;;;9.07;1.30;;;;;;;;;;5125699;27;20069;-68
2021/11/04 12:06:15;;;;;;;6.78;1.00;;;;;;;;;;5120092;27;20023;-64
2021/11/04 12:08:46;;;;;;;7.35;1.42;;;;;;;;;;5135606;27;20420;-67
2021/11/04 12:11:32;;;;;;;11.23;1.38;;;;;;;;;;5136393;27;20378;-67
2021/11/04 12:13:58;;;;;;;5.32;1.10;;;;;;;;;;5139641;27;20417;-68
2021/11/04 12:16:24;;;;;;;7.15;1.08;;;;;;;;;;5135816;27;20007;-67
2021/11/04 12:19:00;;;;;;;12.85;1.45;;;;;;;;;;5116686;27;20047;-67
2021/11/04 12:21:28;;;;;;;6.30;1.10;;;;;;;;;;5116158;27;20470;-64
2021/11/04 12:23:58;;;;;;;9.73;0.90;;;;;;;;;;5140142;27;20374;-65
2021/11/04 12:26:39;;;;;;;5.80;1.00;;;;;;;;;;5138330;27;20030;-65
2021/11/04 12:29:06;;;;;;;9.93;1.10;;;;;;;;;;5136413;27;20021;-65
2021/11/04 12:31:32;;;;;;;5.07;1.00;;;;;;;;;;5121257;27;20043;-65
2021/11/04 12:34:01;;;;;;;5.28;0.88;;;;;;;;;;5138064;27;20093;-66
2021/11/04 12:36:31;;;;;;;5.38;0.80;;;;;;;;;;5138063;27;20047;-65
2021/11/04 12:38:57;;;;;;;3.60;0.82;;;;;;;;;;5137924;27;20038;-65
2021/11/04 12:41:24;;;;;;;3.83;0.90;;;;;;;;;;5117578;27;20059;-65
2021/11/04 12:43:50;;;;;;;10.82;0.77;;;;;;;;;;5096809;28;20024;-65
2021/11/04 12:46:24;;;;;;;4.43;0.80;;;;;;;;;;5096798;28;20123;-65
2021/11/04 12:48:50;;;;;;;5.68;1.10;;;;;;;;;;5136737;27;20374;-65
2021/11/04 12:51:17;;;;;;;6.57;1.08;;;;;;;;;;5137082;27;20470;-65
2021/11/04 12:53:49;;;;;;;8.85;1.23;;;;;;;;;;5139263;27;20508;-65
2021/11/04 12:56:17;;;;;;;5.65;0.73;;;;;;;;;;5135156;27;20035;-65
2021/11/04 12:58:43;;;;;;;9.55;0.85;;;;;;;;;;5135700;27;20023;-65
2021/11/04 13:01:09;;;;;;;14.73;0.82;;;;;;;;;;5115038;27;20069;-63
2021/11/04 13:03:35;;;;;;;29.15;1.13;;;;;;;;;;5156269;27;20101;-63
2021/11/04 13:06:04;;;;;;;16.17;1.10;;;;;;;;;;5149545;27;20109;-64
2021/11/04 13:08:31;;;;;;;15.15;1.13;;;;;;;;;;5141164;27;20050;-63
2021/11/04 13:11:01;;;;;;;23.15;1.10;;;;;;;;;;5142349;27;20073;-63
2021/11/04 13:13:28;;;;;;;24.13;1.42;;;;;;;;;;5129672;27;20038;-64
2021/11/04 13:15:53;;;;;;;21.55;1.08;;;;;;;;;;5132775;27;20019;-64
2021/11/04 13:18:20;;;;;;;28.02;1.55;;;;;;;;;;5128226;27;20399;-64
2021/11/04 13:20:48;;;;;;;25.73;1.50;;;;;;;;;;5129457;27;20036;-64
2021/11/04 13:23:27;;;;;;;18.63;1.85;;;;;;;;;;5126206;27;20474;-64
2021/11/04 13:25:54;;;;;;;16.92;1.50;;;;;;;;;;5112478;27;20489;-65
2021/11/04 13:28:26;;;;;;;18.42;1.80;;;;;;;;;;5130545;27;20137;-65
2021/11/04 13:30:53;;;;;;;10.50;1.95;;;;;;;;;;5134693;27;20043;-65
2021/11/04 13:33:21;;;;;;;23.67;1.33;;;;;;;;;;5133077;27;20103;-64
2021/11/04 13:35:47;;;;;;;11.52;1.05;;;;;;;;;;5130012;27;20272;-65
2021/11/04 13:38:19;;;;;;;26.80;0.90;;;;;;;;;;5130328;27;20514;-64
2021/11/04 13:40:49;;;;;;;14.85;1.42;;;;;;;;;;5119202;27;20042;-64
2021/11/04 13:43:17;;;;;;;9.77;1.10;;;;;;;;;;5135336;27;20474;-64
2021/11/04 13:45:44;;;;;;;11.27;0.85;;;;;;;;;;5134163;27;20027;-65
2021/11/04 13:48:10;;;;;;;11.05;0.80;;;;;;;;;;5116345;27;20340;-64
2021/11/04 13:50:39;;;;;;;11.93;1.15;;;;;;;;;;5113069;27;20065;-65
2021/11/04 13:53:19;;;;;;;13.65;1.10;;;;;;;;;;5121841;27;20035;-66
2021/11/04 13:55:46;;;;;;;9.38;1.38;;;;;;;;;;5134491;27;20031;-66
2021/11/04 13:58:12;;;;;;;7.75;0.93;;;;;;;;;;5134176;27;20076;-65
2021/11/04 14:00:38;;;;;;;9.07;1.10;;;;;;;;;;5116979;27;20035;-66
2021/11/04 14:03:06;;;;;;;8.15;1.30;;;;;;;;;;5127956;27;20091;-67
2021/11/04 14:06:07;;;;;;;9.45;1.20;;;;;;;;;;5115795;27;20145;-66
2021/11/04 14:08:40;;;;;;;7.60;1.00;;;;;;;;;;5072409;28;20021;-65
2021/11/04 14:11:12;;;;;;;10.75;1.30;;;;;;;;;;5125723;27;20043;-65
2021/11/04 14:13:52;;;;;;;40.58;1.70;;;;;;;;;;5134543;27;20114;-66
2021/11/04 14:16:22;;;;;;;12.25;1.80;;;;;;;;;;5133929;27;20023;-67
2021/11/04 14:18:48;;;;;;;13.45;1.50;;;;;;;;;;5132686;27;20063;-66
2021/11/04 14:21:14;;;;;;;17.88;1.85;;;;;;;;;;5098698;28;20042;-65
2021/11/04 14:23:40;;;;;;;9.73;1.50;;;;;;;;;;5114090;28;20028;-66
2021/11/04 14:26:06;;;;;;;15.88;1.70;;;;;;;;;;5130611;27;20039;-66
2021/11/04 14:28:32;;;;;;;13.25;2.00;;;;;;;;;;5131842;28;20023;-66
2021/11/04 14:30:58;;;;;;;7.15;1.85;;;;;;;;;;5133096;27;20064;-66
2021/11/04 14:33:24;;;;;;;27.40;2.15;;;;;;;;;;5119777;28;20035;-66
2021/11/04 14:35:50;;;;;;;15.38;2.15;;;;;;;;;;5124896;28;20564;-65
2021/11/04 14:38:16;;;;;;;8.23;2.08;;;;;;;;;;5133938;28;20035;-66
2021/11/04 14:40:42;;;;;;;16.60;2.60;;;;;;;;;;5126504;28;20031;-65